createdAt,value
2023-01-13T00:01:12.472Z,94.62
2023-01-13T00:03:39.317Z,94.29
2023-01-13T00:06:06.690Z,94.72
2023-01-13T00:08:33.729Z,94.75
2023-01-13T00:11:00.398Z,94.89
2023-01-13T00:13:27.051Z,95.18
2023-01-13T00:15:58.248Z,95.35
2023-01-13T00:18:25.311Z,95.96
2023-01-13T00:21:02.456Z,95.24
2023-01-13T00:23:30.467Z,95.60
2023-01-13T00:25:58.028Z,95.94
2023-01-13T00:28:25.023Z,97.60
2023-01-13T00:30:51.850Z,98.01
2023-01-13T00:33:19.060Z,98.60
2023-01-13T00:35:45.781Z,98.53
2023-01-13T00:38:12.397Z,98.11
2023-01-13T00:40:38.984Z,98.66
2023-01-13T00:43:23.693Z,99.72
2023-01-13T00:45:53.338Z,100.00
2023-01-13T00:48:21.649Z,100.00
2023-01-13T00:50:58.457Z,100.00
2023-01-13T00:53:25.984Z,100.00
2023-01-13T00:56:34.081Z,100.00
2023-01-13T00:59:05.003Z,100.00
2023-01-13T01:01:31.943Z,100.00
2023-01-13T01:03:58.654Z,100.00
2023-01-13T01:06:26.788Z,100.00
2023-01-13T01:08:54.544Z,100.00
2023-01-13T01:11:26.770Z,100.00
2023-01-13T01:13:55.844Z,100.00
2023-01-13T01:16:24.204Z,100.00
2023-01-13T01:18:52.047Z,100.00
2023-01-13T01:21:19.833Z,100.00
2023-01-13T01:23:46.435Z,100.00
2023-01-13T01:26:18.866Z,100.00
2023-01-13T01:28:45.915Z,100.00
2023-01-13T01:31:23.695Z,100.00
2023-01-13T01:33:50.748Z,100.00
2023-01-13T01:36:20.136Z,100.00
2023-01-13T01:38:47.325Z,100.00
2023-01-13T01:41:22.311Z,100.00
2023-01-13T01:44:00.270Z,100.00
2023-01-13T01:46:38.732Z,100.00
2023-01-13T01:49:17.986Z,100.00
2023-01-13T01:52:12.063Z,100.00
2023-01-13T01:54:46.245Z,100.00
2023-01-13T01:57:16.501Z,100.00
2023-01-13T01:59:43.422Z,100.00
2023-01-13T02:02:10.571Z,100.00
2023-01-13T02:04:41.401Z,100.00
2023-01-13T02:07:08.295Z,100.00
2023-01-13T02:09:35.258Z,100.00
2023-01-13T02:12:20.911Z,100.00
2023-01-13T02:14:47.600Z,100.00
2023-01-13T02:17:33.081Z,100.00
2023-01-13T02:20:35.062Z,100.00
2023-01-13T02:23:50.100Z,100.00
2023-01-13T02:26:16.535Z,100.00
2023-01-13T02:29:41.160Z,100.00
2023-01-13T02:32:25.553Z,100.00
2023-01-13T02:34:56.317Z,100.00
2023-01-13T02:37:28.852Z,100.00
2023-01-13T02:40:02.122Z,100.00
2023-01-13T02:42:52.771Z,100.00
2023-01-13T02:45:23.719Z,100.00
2023-01-13T02:47:51.405Z,100.00
2023-01-13T02:50:20.144Z,100.00
2023-01-13T02:52:53.046Z,100.00
2023-01-13T02:55:27.120Z,100.00
2023-01-13T02:57:55.899Z,100.00
2023-01-13T03:00:23.457Z,100.00
2023-01-13T03:02:50.073Z,100.00
2023-01-13T03:05:17.442Z,100.00
2023-01-13T03:08:02.451Z,100.00
2023-01-13T03:10:41.407Z,100.00
2023-01-13T03:13:14.928Z,100.00
2023-01-13T03:15:59.721Z,100.00
2023-01-13T03:18:53.134Z,100.00
2023-01-13T03:21:27.490Z,100.00
2023-01-13T03:24:02.070Z,100.00
2023-01-13T03:26:43.693Z,100.00
2023-01-13T03:29:14.670Z,100.00
2023-01-13T03:31:54.188Z,100.00
2023-01-13T03:34:22.565Z,100.00
2023-01-13T03:36:51.775Z,100.00
2023-01-13T03:39:25.011Z,100.00
2023-01-13T03:41:57.274Z,100.00
2023-01-13T03:44:36.134Z,100.00
2023-01-13T03:47:11.526Z,100.00
2023-01-13T03:49:52.395Z,100.00
2023-01-13T03:52:25.364Z,100.00
2023-01-13T03:54:57.705Z,100.00
2023-01-13T03:57:27.688Z,100.00
2023-01-13T03:59:56.436Z,100.00
2023-01-13T04:02:33.217Z,100.00
2023-01-13T04:05:04.380Z,100.00
2023-01-13T04:07:37.011Z,100.00
2023-01-13T04:10:06.586Z,100.00
2023-01-13T04:12:55.485Z,100.00
2023-01-13T04:15:24.542Z,100.00
2023-01-13T04:17:51.464Z,100.00
2023-01-13T04:20:18.805Z,100.00
2023-01-13T04:22:45.470Z,100.00
2023-01-13T04:25:12.379Z,100.00
2023-01-13T04:27:38.981Z,100.00
2023-01-13T04:30:06.681Z,100.00
2023-01-13T04:32:33.163Z,100.00
2023-01-13T04:34:59.794Z,100.00
2023-01-13T04:37:26.365Z,100.00
2023-01-13T04:39:52.810Z,100.00
2023-01-13T04:42:20.263Z,100.00
2023-01-13T04:44:46.901Z,100.00
2023-01-13T04:47:13.332Z,100.00
2023-01-13T04:49:39.996Z,100.00
2023-01-13T04:52:06.983Z,100.00
2023-01-13T04:54:33.446Z,100.00
2023-01-13T04:57:00.048Z,100.00
2023-01-13T04:59:26.638Z,100.00
2023-01-13T05:01:53.211Z,100.00
2023-01-13T05:04:23.460Z,100.00
2023-01-13T05:06:50.245Z,100.00
2023-01-13T05:09:16.834Z,100.00
2023-01-13T05:12:02.404Z,100.00
2023-01-13T05:14:47.587Z,100.00
2023-01-13T05:17:20.785Z,100.00
2023-01-13T05:19:47.671Z,100.00
2023-01-13T05:22:33.020Z,100.00
2023-01-13T05:25:18.729Z,100.00
2023-01-13T05:27:45.640Z,100.00
2023-01-13T05:30:12.552Z,100.00
2023-01-13T05:32:39.263Z,100.00
2023-01-13T05:35:05.906Z,100.00
2023-01-13T05:37:32.598Z,100.00
2023-01-13T05:40:18.416Z,100.00
2023-01-13T05:43:03.473Z,100.00
2023-01-13T05:45:31.486Z,100.00
2023-01-13T05:47:58.273Z,100.00
2023-01-13T05:50:24.922Z,100.00
2023-01-13T05:52:51.633Z,100.00
2023-01-13T05:55:18.685Z,100.00
2023-01-13T05:57:45.400Z,100.00
2023-01-13T06:00:12.535Z,100.00
2023-01-13T06:02:39.869Z,100.00
2023-01-13T06:05:06.592Z,100.00
2023-01-13T06:07:33.168Z,100.00
2023-01-13T06:09:59.939Z,100.00
2023-01-13T06:12:26.422Z,100.00
2023-01-13T06:14:53.035Z,100.00
2023-01-13T06:17:20.249Z,100.00
2023-01-13T06:19:46.708Z,100.00
2023-01-13T06:22:16.784Z,100.00
2023-01-13T06:24:46.052Z,100.00
2023-01-13T06:27:12.869Z,100.00
2023-01-13T06:29:39.466Z,100.00
2023-01-13T06:32:10.464Z,100.00
2023-01-13T06:34:37.793Z,100.00
2023-01-13T06:37:05.363Z,100.00
2023-01-13T06:39:32.345Z,100.00
2023-01-13T06:42:18.698Z,100.00
2023-01-13T06:44:45.506Z,100.00
2023-01-13T06:47:12.025Z,100.00
2023-01-13T06:49:38.708Z,100.00
2023-01-13T06:52:05.516Z,100.00
2023-01-13T06:54:32.005Z,100.00
2023-01-13T06:56:58.577Z,100.00
2023-01-13T06:59:25.886Z,100.00
2023-01-13T07:01:52.691Z,100.00
2023-01-13T07:04:20.098Z,100.00
2023-01-13T07:06:46.719Z,100.00
2023-01-13T07:09:13.172Z,100.00
2023-01-13T07:11:39.911Z,100.00
2023-01-13T07:14:25.309Z,100.00
2023-01-13T07:16:53.207Z,100.00
2023-01-13T07:19:23.793Z,100.00
2023-01-13T07:21:51.844Z,100.00
2023-01-13T07:24:20.134Z,100.00
2023-01-13T07:26:46.832Z,100.00
2023-01-13T07:29:13.576Z,100.00
2023-01-13T07:31:40.303Z,100.00
2023-01-13T07:34:07.436Z,100.00
2023-01-13T07:36:34.354Z,100.00
2023-01-13T07:39:01.246Z,100.00
2023-01-13T07:41:46.432Z,100.00
2023-01-13T07:44:13.261Z,100.00
2023-01-13T07:46:40.168Z,100.00
2023-01-13T07:49:07.104Z,100.00
2023-01-13T07:51:37.524Z,100.00
2023-01-13T07:54:04.427Z,100.00
2023-01-13T07:56:31.423Z,100.00
2023-01-13T07:59:00.525Z,100.00
2023-01-13T08:01:31.881Z,100.00
2023-01-13T08:03:59.075Z,100.00
2023-01-13T08:06:26.430Z,100.00
2023-01-13T08:08:53.337Z,100.00
2023-01-13T08:11:23.286Z,100.00
2023-01-13T08:13:50.202Z,100.00
2023-01-13T08:16:17.506Z,100.00
2023-01-13T08:18:44.093Z,100.00
2023-01-13T08:21:13.428Z,100.00
2023-01-13T08:23:40.904Z,100.00
2023-01-13T08:26:10.445Z,100.00
2023-01-13T08:28:37.416Z,100.00
2023-01-13T08:31:06.346Z,100.00
2023-01-13T08:33:33.422Z,100.00
2023-01-13T08:36:06.876Z,100.00
2023-01-13T08:38:34.479Z,100.00
2023-01-13T08:41:01.223Z,100.00
2023-01-13T08:43:27.925Z,100.00
2023-01-13T08:45:59.272Z,100.00
2023-01-13T08:48:26.687Z,100.00
2023-01-13T08:50:53.533Z,100.00
2023-01-13T08:53:20.750Z,100.00
2023-01-13T08:55:47.366Z,100.00
2023-01-13T08:58:16.273Z,100.00
2023-01-13T09:00:43.648Z,100.00
2023-01-13T09:03:10.187Z,100.00
2023-01-13T09:05:36.969Z,100.00
2023-01-13T09:08:03.542Z,100.00
2023-01-13T09:10:30.020Z,100.00
2023-01-13T09:13:11.836Z,100.00
2023-01-13T09:15:42.556Z,100.00
2023-01-13T09:18:09.785Z,100.00
2023-01-13T09:20:36.532Z,100.00
2023-01-13T09:23:03.719Z,100.00
2023-01-13T09:25:30.771Z,100.00
2023-01-13T09:27:57.526Z,100.00
2023-01-13T09:30:24.838Z,100.00
2023-01-13T09:33:11.585Z,100.00
2023-01-13T09:35:38.461Z,100.00
2023-01-13T09:38:06.127Z,100.00
2023-01-13T09:40:32.867Z,100.00
2023-01-13T09:43:23.356Z,100.00
2023-01-13T09:45:55.522Z,100.00
2023-01-13T09:48:29.625Z,100.00
2023-01-13T09:51:21.042Z,100.00
2023-01-13T09:53:55.902Z,100.00
2023-01-13T09:56:23.370Z,100.00
2023-01-13T09:58:50.120Z,100.00
2023-01-13T10:01:16.755Z,100.00
2023-01-13T10:03:43.625Z,100.00
2023-01-13T10:06:21.785Z,100.00
2023-01-13T10:08:49.386Z,100.00
2023-01-13T10:11:42.443Z,100.00
2023-01-13T10:14:16.862Z,100.00
2023-01-13T10:17:18.315Z,100.00
2023-01-13T10:19:50.475Z,100.00
2023-01-13T10:22:49.445Z,100.00
2023-01-13T10:25:37.643Z,100.00
2023-01-13T10:28:14.884Z,100.00
2023-01-13T10:30:44.665Z,100.00
2023-01-13T10:33:20.586Z,100.00
2023-01-13T10:36:01.213Z,100.00
2023-01-13T10:38:36.655Z,100.00
2023-01-13T10:41:06.852Z,100.00
2023-01-13T10:43:33.410Z,100.00
2023-01-13T10:46:03.803Z,100.00
2023-01-13T10:48:40.980Z,100.00
2023-01-13T10:51:39.884Z,98.80
2023-01-13T10:54:15.304Z,98.87
2023-01-13T10:56:44.842Z,98.43
2023-01-13T10:59:26.961Z,97.82
2023-01-13T11:02:13.115Z,97.29
2023-01-13T11:04:53.201Z,96.47
2023-01-13T11:07:34.607Z,96.15
2023-01-13T11:10:10.505Z,95.69
2023-01-13T11:13:01.887Z,96.53
2023-01-13T11:15:38.570Z,96.31
2023-01-13T11:18:13.313Z,95.98
2023-01-13T11:20:41.386Z,95.14
2023-01-13T11:23:37.968Z,95.84
2023-01-13T11:26:10.794Z,95.22
2023-01-13T11:28:46.452Z,94.89
2023-01-13T11:31:27.872Z,94.87
2023-01-13T11:34:02.022Z,94.33
2023-01-13T11:36:34.314Z,94.42
2023-01-13T11:39:11.639Z,93.33
2023-01-13T11:42:08.939Z,94.52
2023-01-13T11:44:41.601Z,94.15
2023-01-13T11:47:10.620Z,94.63
2023-01-13T11:49:38.570Z,94.48
2023-01-13T11:52:33.784Z,93.52
2023-01-13T11:55:25.761Z,94.02
2023-01-13T11:58:19.222Z,94.12
2023-01-13T12:01:22.934Z,94.15
2023-01-13T12:04:04.796Z,93.92
2023-01-13T12:06:41.111Z,94.05
2023-01-13T12:09:32.806Z,93.92
2023-01-13T12:12:27.582Z,94.18
2023-01-13T12:15:03.305Z,93.30
2023-01-13T12:17:43.384Z,93.54
2023-01-13T12:20:31.005Z,93.56
2023-01-13T12:23:02.281Z,93.90
2023-01-13T12:25:39.731Z,94.26
2023-01-13T12:28:35.919Z,94.61
2023-01-13T12:31:03.267Z,94.20
2023-01-13T12:34:00.236Z,94.43
2023-01-13T12:36:54.887Z,94.39
2023-01-13T12:39:38.102Z,94.15
2023-01-13T12:42:36.469Z,94.08
2023-01-13T12:45:09.769Z,93.95
2023-01-13T12:47:40.346Z,93.12
2023-01-13T12:50:21.876Z,92.35
2023-01-13T12:53:12.537Z,92.18
2023-01-13T12:55:39.076Z,92.55
2023-01-13T12:58:05.665Z,92.69
2023-01-13T13:00:41.178Z,92.79
2023-01-13T13:03:09.833Z,92.19
2023-01-13T13:05:49.056Z,92.34
2023-01-13T13:08:36.107Z,92.75
2023-01-13T13:11:43.564Z,93.09
2023-01-13T13:14:13.813Z,92.70
2023-01-13T13:16:49.458Z,93.53
2023-01-13T13:19:19.179Z,94.05
2023-01-13T13:22:13.715Z,93.67
2023-01-13T13:24:41.718Z,93.84
2023-01-13T13:27:27.475Z,94.40
2023-01-13T13:30:06.025Z,94.62
2023-01-13T13:33:26.281Z,94.09
2023-01-13T13:36:08.017Z,94.39
2023-01-13T13:39:17.035Z,93.43
2023-01-13T13:42:05.880Z,93.08
2023-01-13T13:44:59.813Z,93.17
2023-01-13T13:47:38.378Z,93.88
2023-01-13T13:50:25.519Z,94.42
2023-01-13T13:52:57.717Z,94.85
2023-01-13T13:55:29.082Z,95.29
2023-01-13T13:57:57.515Z,95.70
2023-01-13T14:00:33.912Z,96.43
2023-01-13T14:03:15.972Z,96.40
2023-01-13T14:05:53.630Z,96.37
2023-01-13T14:08:23.185Z,96.59
2023-01-13T14:10:50.144Z,96.71
2023-01-13T14:13:28.605Z,97.96
2023-01-13T14:15:57.189Z,99.18
2023-01-13T14:18:24.075Z,99.82
2023-01-13T14:21:05.648Z,100.00
2023-01-13T14:23:33.432Z,100.00
2023-01-13T14:26:08.686Z,100.00
2023-01-13T14:28:38.833Z,100.00
2023-01-13T14:31:06.685Z,100.00
2023-01-13T14:33:47.688Z,100.00
2023-01-13T14:36:16.012Z,100.00
2023-01-13T14:38:44.819Z,100.00
2023-01-13T14:41:26.241Z,100.00
2023-01-13T14:43:56.454Z,100.00
2023-01-13T14:46:25.418Z,100.00
2023-01-13T14:48:59.882Z,100.00
2023-01-13T14:51:28.446Z,100.00
2023-01-13T14:53:55.651Z,100.00
2023-01-13T14:56:55.234Z,100.00
2023-01-13T14:59:55.973Z,100.00
2023-01-13T15:02:36.428Z,100.00
2023-01-13T15:05:24.222Z,100.00
2023-01-13T15:08:11.463Z,100.00
2023-01-13T15:10:54.819Z,100.00
2023-01-13T15:13:37.810Z,100.00
2023-01-13T15:16:07.391Z,99.60
2023-01-13T15:18:35.989Z,100.00
2023-01-13T15:21:02.638Z,99.10
2023-01-13T15:23:29.234Z,99.73
2023-01-13T15:25:55.942Z,99.44
2023-01-13T15:28:24.988Z,99.53
2023-01-13T15:30:53.422Z,99.55
2023-01-13T15:33:21.109Z,99.56
2023-01-13T15:35:50.010Z,98.99
2023-01-13T15:38:22.315Z,99.43
2023-01-13T15:40:49.764Z,99.06
2023-01-13T15:43:42.726Z,98.62
2023-01-13T15:46:32.455Z,98.17
2023-01-13T15:49:02.472Z,98.49
2023-01-13T15:51:28.937Z,98.19
2023-01-13T15:53:55.560Z,98.45
2023-01-13T15:56:26.594Z,97.97
2023-01-13T15:58:53.215Z,97.51
2023-01-13T16:01:23.303Z,97.32
2023-01-13T16:03:50.318Z,96.97
2023-01-13T16:06:20.178Z,97.24
2023-01-13T16:08:46.692Z,97.28
2023-01-13T16:11:13.584Z,96.48
2023-01-13T16:13:40.210Z,95.80
2023-01-13T16:16:24.111Z,96.47
2023-01-13T16:18:51.823Z,96.39
2023-01-13T16:21:21.827Z,96.24
2023-01-13T16:23:49.534Z,96.48
2023-01-13T16:26:23.382Z,95.82
2023-01-13T16:28:52.312Z,94.99
2023-01-13T16:31:25.740Z,95.51
2023-01-13T16:33:52.777Z,95.06
2023-01-13T16:36:20.883Z,94.69
2023-01-13T16:38:48.637Z,94.51
2023-01-13T16:41:15.727Z,94.63
2023-01-13T16:43:42.464Z,94.38
2023-01-13T16:46:25.341Z,93.66
2023-01-13T16:48:54.261Z,93.16
2023-01-13T16:51:21.859Z,93.05
2023-01-13T16:53:48.823Z,92.95
2023-01-13T16:56:23.799Z,92.82
2023-01-13T16:58:54.501Z,93.08
2023-01-13T17:01:29.429Z,92.81
2023-01-13T17:03:56.837Z,92.75
2023-01-13T17:06:25.383Z,92.22
2023-01-13T17:08:53.382Z,92.64
2023-01-13T17:11:20.929Z,92.47
2023-01-13T17:13:47.679Z,92.42
2023-01-13T17:16:20.902Z,92.62
2023-01-13T17:18:48.317Z,93.74
2023-01-13T17:21:14.980Z,94.52
2023-01-13T17:23:41.901Z,95.13
2023-01-13T17:26:40.086Z,95.57
2023-01-13T17:29:09.997Z,95.92
2023-01-13T17:31:36.854Z,96.30
2023-01-13T17:34:04.272Z,96.41
2023-01-13T17:36:31.351Z,96.96
2023-01-13T17:38:58.245Z,97.23
2023-01-13T17:41:25.998Z,98.01
2023-01-13T17:43:53.456Z,99.38
2023-01-13T17:46:37.470Z,100.00
2023-01-13T17:49:04.277Z,100.00
2023-01-13T17:51:30.982Z,100.00
2023-01-13T17:53:57.486Z,100.00
2023-01-13T17:56:25.480Z,100.00
2023-01-13T17:58:52.360Z,100.00
2023-01-13T18:01:21.376Z,100.00
2023-01-13T18:03:48.335Z,100.00
2023-01-13T18:06:22.927Z,100.00
2023-01-13T18:08:50.022Z,100.00
2023-01-13T18:11:19.242Z,100.00
2023-01-13T18:13:46.757Z,100.00
2023-01-13T18:16:15.217Z,100.00
2023-01-13T18:18:43.592Z,100.00
2023-01-13T18:21:37.125Z,100.00
2023-01-13T18:24:22.785Z,100.00
2023-01-13T18:27:07.983Z,100.00
2023-01-13T18:29:34.552Z,100.00
2023-01-13T18:32:01.290Z,100.00
2023-01-13T18:34:28.021Z,100.00
2023-01-13T18:36:54.548Z,100.00
2023-01-13T18:39:21.422Z,100.00
2023-01-13T18:42:06.738Z,100.00
2023-01-13T18:44:33.354Z,100.00
2023-01-13T18:46:59.974Z,100.00
2023-01-13T18:49:27.318Z,100.00
2023-01-13T18:51:54.029Z,100.00
2023-01-13T18:54:20.828Z,100.00
2023-01-13T18:56:49.164Z,100.00
2023-01-13T18:59:16.835Z,100.00
2023-01-13T19:01:44.000Z,100.00
2023-01-13T19:04:15.865Z,100.00
2023-01-13T19:06:51.894Z,100.00
2023-01-13T19:09:22.819Z,100.00
2023-01-13T19:11:50.520Z,100.00
2023-01-13T19:14:34.284Z,100.00
2023-01-13T19:17:09.793Z,100.00
2023-01-13T19:19:46.015Z,100.00
2023-01-13T19:22:15.120Z,100.00
2023-01-13T19:24:42.166Z,100.00
2023-01-13T19:27:09.807Z,100.00
2023-01-13T19:29:36.485Z,100.00
2023-01-13T19:32:03.488Z,100.00
2023-01-13T19:34:30.404Z,100.00
2023-01-13T19:36:57.285Z,100.00
2023-01-13T19:39:24.039Z,100.00
2023-01-13T19:42:09.315Z,100.00
2023-01-13T19:44:54.643Z,100.00
2023-01-13T19:47:21.182Z,100.00
2023-01-13T19:49:47.888Z,100.00
2023-01-13T19:52:14.553Z,100.00
2023-01-13T19:54:41.161Z,100.00
2023-01-13T19:57:08.012Z,100.00
2023-01-13T19:59:35.586Z,100.00
2023-01-13T20:02:03.954Z,100.00
2023-01-13T20:04:37.754Z,100.00
2023-01-13T20:07:06.471Z,100.00
2023-01-13T20:09:34.430Z,100.00
2023-01-13T20:12:07.461Z,100.00
2023-01-13T20:14:34.307Z,100.00
2023-01-13T20:17:01.295Z,100.00
2023-01-13T20:19:27.889Z,100.00
2023-01-13T20:21:54.467Z,100.00
2023-01-13T20:24:21.372Z,100.00
2023-01-13T20:26:47.969Z,100.00
2023-01-13T20:29:14.717Z,100.00
2023-01-13T20:31:41.535Z,100.00
2023-01-13T20:34:08.798Z,100.00
2023-01-13T20:36:37.423Z,100.00
2023-01-13T20:39:06.322Z,100.00
2023-01-13T20:41:51.667Z,100.00
2023-01-13T20:44:18.817Z,100.00
2023-01-13T20:46:45.669Z,100.00
2023-01-13T20:49:13.470Z,100.00
2023-01-13T20:51:40.115Z,100.00
2023-01-13T20:54:06.986Z,100.00
2023-01-13T20:56:33.673Z,100.00
2023-01-13T20:59:00.415Z,100.00
2023-01-13T21:01:28.000Z,100.00
2023-01-13T21:03:57.617Z,100.00
2023-01-13T21:06:24.486Z,100.00
2023-01-13T21:08:54.147Z,100.00
2023-01-13T21:11:44.149Z,100.00
2023-01-13T21:14:46.102Z,100.00
2023-01-13T21:17:32.784Z,100.00
2023-01-13T21:19:59.918Z,100.00
2023-01-13T21:22:26.670Z,100.00
2023-01-13T21:24:53.263Z,100.00
2023-01-13T21:27:20.934Z,100.00
2023-01-13T21:29:47.459Z,100.00
2023-01-13T21:32:14.260Z,100.00
2023-01-13T21:34:40.850Z,100.00
2023-01-13T21:37:07.689Z,100.00
2023-01-13T21:39:34.379Z,100.00
2023-01-13T21:42:19.901Z,100.00
2023-01-13T21:45:05.397Z,100.00
2023-01-13T21:47:50.300Z,100.00
2023-01-13T21:50:21.162Z,100.00
2023-01-13T21:52:48.854Z,100.00
2023-01-13T21:55:26.121Z,100.00
2023-01-13T21:57:55.119Z,100.00
2023-01-13T22:00:24.007Z,100.00
2023-01-13T22:02:51.133Z,100.00
2023-01-13T22:05:22.448Z,100.00
2023-01-13T22:07:49.278Z,100.00
2023-01-13T22:10:18.936Z,100.00
2023-01-13T22:12:45.847Z,100.00
2023-01-13T22:15:14.469Z,100.00
2023-01-13T22:17:42.477Z,100.00
2023-01-13T22:20:10.678Z,100.00
2023-01-13T22:22:37.267Z,100.00
2023-01-13T22:25:07.148Z,100.00
2023-01-13T22:27:39.406Z,100.00
2023-01-13T22:30:15.859Z,100.00
2023-01-13T22:32:42.613Z,100.00
2023-01-13T22:35:10.242Z,100.00
2023-01-13T22:37:37.294Z,100.00
2023-01-13T22:40:05.055Z,100.00
2023-01-13T22:42:31.719Z,100.00
2023-01-13T22:44:58.254Z,100.00
2023-01-13T22:47:24.989Z,100.00
2023-01-13T22:49:51.590Z,100.00
2023-01-13T22:52:18.581Z,100.00
2023-01-13T22:54:45.306Z,100.00
2023-01-13T22:57:11.925Z,100.00
2023-01-13T22:59:39.136Z,100.00
2023-01-13T23:02:05.799Z,100.00
2023-01-13T23:04:32.373Z,100.00
2023-01-13T23:07:00.287Z,100.00
2023-01-13T23:09:29.855Z,100.00
2023-01-13T23:11:58.988Z,100.00
2023-01-13T23:14:25.703Z,100.00
2023-01-13T23:16:52.649Z,100.00
2023-01-13T23:19:20.043Z,100.00
2023-01-13T23:21:46.573Z,100.00
2023-01-13T23:24:13.183Z,100.00
2023-01-13T23:26:39.707Z,100.00
2023-01-13T23:29:08.469Z,100.00
2023-01-13T23:31:35.161Z,100.00
2023-01-13T23:34:01.824Z,100.00
2023-01-13T23:36:29.013Z,100.00
2023-01-13T23:39:17.501Z,100.00
2023-01-13T23:41:44.185Z,100.00
2023-01-13T23:44:10.688Z,100.00
2023-01-13T23:46:37.348Z,100.00
2023-01-13T23:49:04.023Z,100.00
2023-01-13T23:51:30.765Z,100.00
2023-01-13T23:53:58.145Z,100.00
2023-01-13T23:56:26.849Z,100.00
2023-01-13T23:58:53.819Z,100.00
